createdAt,value
2022-12-14T00:00:52.200Z,15.7
2022-12-14T00:01:52.751Z,15.2
2022-12-14T00:02:53.420Z,14.3
2022-12-14T00:03:54.079Z,14.5
2022-12-14T00:04:54.631Z,14.9
2022-12-14T00:05:55.223Z,15.3
2022-12-14T00:06:55.824Z,16.2
2022-12-14T00:07:56.412Z,14.9
2022-12-14T00:08:57.021Z,16.2
2022-12-14T00:09:57.597Z,15.0
2022-12-14T00:10:58.196Z,16.2
2022-12-14T00:11:58.785Z,15.9
2022-12-14T00:12:59.382Z,14.7
2022-12-14T00:13:59.969Z,15.8
2022-12-14T00:15:00.565Z,15.8
2022-12-14T00:16:01.213Z,15.9
2022-12-14T00:17:01.750Z,15.6
2022-12-14T00:18:02.344Z,16.0
2022-12-14T00:19:02.943Z,16.8
2022-12-14T00:20:03.533Z,16.1
2022-12-14T00:21:04.176Z,16.2
2022-12-14T00:22:04.770Z,15.7
2022-12-14T00:23:05.367Z,15.1
2022-12-14T00:24:05.965Z,15.5
2022-12-14T00:25:06.556Z,15.7
2022-12-14T00:26:07.143Z,14.9
2022-12-14T00:27:07.738Z,15.8
2022-12-14T00:28:08.351Z,15.4
2022-12-14T00:29:08.943Z,14.6
2022-12-14T00:30:09.578Z,15.2
2022-12-14T00:31:10.226Z,14.4
2022-12-14T00:32:10.784Z,13.7
2022-12-14T00:33:11.399Z,13.4
2022-12-14T00:34:11.987Z,13.6
2022-12-14T00:35:12.582Z,14.9
2022-12-14T00:36:13.175Z,14.4
2022-12-14T00:37:13.771Z,12.6
2022-12-14T00:38:14.363Z,13.8
2022-12-14T00:39:14.976Z,14.3
2022-12-14T00:40:15.587Z,12.5
2022-12-14T00:41:16.180Z,13.1
2022-12-14T00:42:16.776Z,13.8
2022-12-14T00:43:17.369Z,13.0
2022-12-14T00:44:17.966Z,13.7
2022-12-14T00:45:18.558Z,14.1
2022-12-14T00:46:19.198Z,13.9
2022-12-14T00:47:19.779Z,13.3
2022-12-14T00:48:20.371Z,13.5
2022-12-14T00:49:20.967Z,14.2
2022-12-14T00:50:21.559Z,13.8
2022-12-14T00:51:22.156Z,14.2
2022-12-14T00:52:22.750Z,13.7
2022-12-14T00:53:23.346Z,13.7
2022-12-14T00:54:23.958Z,13.1
2022-12-14T00:55:24.555Z,13.3
2022-12-14T00:56:25.168Z,13.6
2022-12-14T00:57:25.760Z,13.1
2022-12-14T00:58:26.892Z,13.8
2022-12-14T00:59:27.577Z,12.4
2022-12-14T01:00:28.171Z,13.3
2022-12-14T01:01:28.868Z,13.5
2022-12-14T01:02:29.539Z,13.9
2022-12-14T01:03:30.669Z,13.7
2022-12-14T01:04:31.468Z,13.2
2022-12-14T01:05:32.062Z,12.6
2022-12-14T01:06:32.654Z,14.0
2022-12-14T01:07:33.250Z,13.4
2022-12-14T01:08:33.843Z,14.1
2022-12-14T01:09:34.437Z,14.0
2022-12-14T01:10:35.032Z,14.3
2022-12-14T01:11:35.630Z,15.5
2022-12-14T01:12:36.220Z,14.0
2022-12-14T01:13:36.813Z,14.5
2022-12-14T01:14:37.407Z,15.0
2022-12-14T01:15:38.194Z,15.6
2022-12-14T01:16:38.608Z,15.4
2022-12-14T01:17:39.203Z,15.7
2022-12-14T01:18:39.797Z,15.5
2022-12-14T01:19:40.390Z,15.3
2022-12-14T01:20:40.985Z,16.7
2022-12-14T01:21:41.580Z,15.7
2022-12-14T01:22:42.174Z,15.4
2022-12-14T01:23:42.767Z,14.7
2022-12-14T01:24:43.361Z,16.3
2022-12-14T01:25:43.955Z,15.9
2022-12-14T01:26:45.541Z,15.3
2022-12-14T01:27:46.133Z,15.3
2022-12-14T01:28:46.727Z,16.9
2022-12-14T01:29:47.327Z,15.6
2022-12-14T01:30:47.958Z,15.2
2022-12-14T01:31:48.769Z,17.4
2022-12-14T01:32:49.646Z,15.8
2022-12-14T01:33:50.241Z,15.1
2022-12-14T01:34:50.833Z,14.4
2022-12-14T01:35:51.429Z,15.5
2022-12-14T01:36:52.044Z,16.8
2022-12-14T01:37:52.659Z,15.4
2022-12-14T01:38:53.249Z,14.6
2022-12-14T01:39:53.844Z,16.1
2022-12-14T01:40:54.435Z,15.6
2022-12-14T01:41:55.029Z,15.8
2022-12-14T01:42:55.623Z,15.9
2022-12-14T01:43:56.223Z,15.3
2022-12-14T01:44:56.809Z,15.8
2022-12-14T01:45:57.408Z,15.3
2022-12-14T01:46:58.000Z,15.8
2022-12-14T01:47:58.603Z,16.2
2022-12-14T01:48:59.200Z,16.4
2022-12-14T01:49:59.794Z,16.1
2022-12-14T01:51:00.388Z,15.9
2022-12-14T01:52:00.982Z,16.1
2022-12-14T01:53:01.577Z,16.2
2022-12-14T01:54:02.189Z,16.3
2022-12-14T01:55:02.781Z,16.0
2022-12-14T01:56:03.375Z,16.0
2022-12-14T01:57:03.967Z,14.1
2022-12-14T01:58:04.572Z,15.5
2022-12-14T01:59:05.155Z,15.7
2022-12-14T02:00:07.661Z,15.3
2022-12-14T02:01:06.352Z,15.0
2022-12-14T02:02:07.040Z,16.2
2022-12-14T02:03:07.695Z,15.3
2022-12-14T02:04:08.248Z,15.2
2022-12-14T02:05:08.839Z,14.6
2022-12-14T02:06:09.436Z,14.3
2022-12-14T02:07:10.028Z,14.1
2022-12-14T02:08:10.621Z,15.4
2022-12-14T02:09:11.213Z,15.3
2022-12-14T02:10:11.808Z,14.4
2022-12-14T02:11:12.399Z,15.2
2022-12-14T02:12:12.995Z,15.4
2022-12-14T02:13:13.587Z,13.3
2022-12-14T02:14:14.184Z,13.8
2022-12-14T02:15:14.790Z,14.5
2022-12-14T02:16:15.408Z,15.6
2022-12-14T02:17:15.981Z,14.1
2022-12-14T02:18:16.576Z,13.6
2022-12-14T02:19:17.169Z,15.5
2022-12-14T02:20:17.765Z,14.2
2022-12-14T02:21:18.358Z,15.4
2022-12-14T02:22:18.952Z,14.0
2022-12-14T02:23:19.547Z,14.4
2022-12-14T02:24:20.138Z,13.4
2022-12-14T02:25:20.733Z,14.3
2022-12-14T02:26:21.327Z,13.8
2022-12-14T02:27:21.922Z,13.4
2022-12-14T02:28:22.533Z,13.2
2022-12-14T02:29:23.131Z,13.3
2022-12-14T02:30:23.741Z,13.7
2022-12-14T02:31:24.358Z,12.5
2022-12-14T02:32:24.925Z,13.5
2022-12-14T02:33:25.969Z,13.3
2022-12-14T02:34:26.839Z,12.5
2022-12-14T02:35:27.429Z,13.1
2022-12-14T02:36:28.023Z,13.0
2022-12-14T02:37:28.619Z,12.9
2022-12-14T02:38:29.216Z,13.5
2022-12-14T02:39:29.808Z,12.8
2022-12-14T02:40:30.402Z,13.7
2022-12-14T02:41:30.995Z,14.4
2022-12-14T02:42:31.587Z,13.9
2022-12-14T02:43:32.183Z,13.9
2022-12-14T02:44:32.773Z,13.8
2022-12-14T02:45:33.370Z,14.4
2022-12-14T02:46:34.037Z,14.3
2022-12-14T02:47:34.590Z,13.6
2022-12-14T02:48:35.183Z,13.4
2022-12-14T02:49:35.798Z,14.8
2022-12-14T02:50:36.367Z,14.9
2022-12-14T02:51:36.984Z,13.7
2022-12-14T02:52:37.597Z,13.9
2022-12-14T02:53:38.190Z,13.3
2022-12-14T02:54:38.787Z,13.3
2022-12-14T02:55:39.399Z,14.0
2022-12-14T02:56:40.012Z,14.0
2022-12-14T02:57:40.609Z,13.7
2022-12-14T02:58:41.198Z,14.0
2022-12-14T02:59:41.795Z,12.7
2022-12-14T03:00:42.423Z,12.0
2022-12-14T03:01:43.142Z,12.0
2022-12-14T03:02:43.734Z,11.8
2022-12-14T03:03:44.475Z,11.7
2022-12-14T03:04:45.067Z,12.2
2022-12-14T03:05:45.663Z,11.3
2022-12-14T03:06:46.254Z,11.8
2022-12-14T03:07:48.728Z,12.0
2022-12-14T03:08:48.435Z,11.4
2022-12-14T03:09:49.030Z,12.3
2022-12-14T03:10:49.623Z,12.8
2022-12-14T03:11:50.239Z,12.3
2022-12-14T03:12:50.830Z,12.7
2022-12-14T03:13:51.426Z,12.8
2022-12-14T03:14:52.018Z,11.6
2022-12-14T03:15:52.657Z,11.4
2022-12-14T03:16:53.202Z,12.7
2022-12-14T03:17:53.795Z,12.3
2022-12-14T03:18:54.386Z,13.5
2022-12-14T03:19:54.981Z,12.2
2022-12-14T03:20:55.574Z,12.3
2022-12-14T03:21:56.169Z,12.6
2022-12-14T03:22:56.762Z,13.0
2022-12-14T03:23:57.357Z,12.3
2022-12-14T03:24:57.947Z,12.7
2022-12-14T03:25:58.548Z,12.4
2022-12-14T03:26:59.136Z,12.7
2022-12-14T03:27:59.731Z,12.0
2022-12-14T03:29:00.323Z,11.5
2022-12-14T03:30:00.937Z,12.7
2022-12-14T03:31:01.559Z,11.7
2022-12-14T03:32:02.131Z,12.3
2022-12-14T03:33:02.722Z,11.9
2022-12-14T03:34:03.338Z,11.0
2022-12-14T03:35:03.949Z,11.7
2022-12-14T03:36:04.543Z,12.4
2022-12-14T03:37:05.135Z,11.5
2022-12-14T03:38:05.726Z,11.3
2022-12-14T03:39:06.321Z,11.1
2022-12-14T03:40:06.913Z,10.4
2022-12-14T03:41:07.507Z,11.9
2022-12-14T03:42:08.102Z,11.9
2022-12-14T03:43:08.696Z,12.0
2022-12-14T03:44:09.289Z,12.2
2022-12-14T03:45:09.880Z,11.0
2022-12-14T03:46:10.517Z,10.6
2022-12-14T03:47:11.088Z,11.5
2022-12-14T03:48:11.684Z,10.1
2022-12-14T03:49:12.276Z,10.7
2022-12-14T03:50:12.888Z,10.4
2022-12-14T03:51:13.483Z,10.0
2022-12-14T03:52:14.076Z,9.7
2022-12-14T03:53:14.669Z,11.0
2022-12-14T03:54:15.264Z,10.6
2022-12-14T03:55:15.856Z,10.0
2022-12-14T03:56:16.449Z,11.6
2022-12-14T03:57:17.063Z,10.6
2022-12-14T03:58:17.659Z,10.8
2022-12-14T03:59:18.252Z,11.5
2022-12-14T04:00:18.863Z,10.9
2022-12-14T04:01:19.540Z,10.9
2022-12-14T04:02:20.250Z,11.8
2022-12-14T04:03:20.893Z,11.1
2022-12-14T04:04:21.466Z,11.3
2022-12-14T04:05:22.060Z,10.5
2022-12-14T04:06:22.654Z,11.7
2022-12-14T04:07:23.251Z,11.4
2022-12-14T04:08:23.846Z,11.5
2022-12-14T04:09:24.438Z,10.9
2022-12-14T04:10:25.032Z,11.6
2022-12-14T04:11:25.624Z,11.1
2022-12-14T04:12:26.218Z,10.2
2022-12-14T04:13:27.155Z,10.0
2022-12-14T04:14:27.439Z,10.3
2022-12-14T04:15:28.040Z,10.5
2022-12-14T04:16:28.647Z,10.2
2022-12-14T04:17:29.221Z,10.2
2022-12-14T04:18:29.837Z,10.2
2022-12-14T04:19:30.423Z,9.6
2022-12-14T04:20:31.015Z,9.9
2022-12-14T04:21:31.604Z,9.7
2022-12-14T04:22:32.197Z,9.4
2022-12-14T04:23:32.789Z,10.1
2022-12-14T04:24:33.383Z,10.1
2022-12-14T04:25:33.975Z,9.6
2022-12-14T04:26:34.567Z,9.8
2022-12-14T04:27:35.160Z,10.6
2022-12-14T04:28:35.754Z,9.8
2022-12-14T04:29:36.345Z,9.7
2022-12-14T04:30:36.937Z,9.8
2022-12-14T04:31:37.564Z,9.7
2022-12-14T04:32:38.174Z,9.7
2022-12-14T04:33:38.731Z,9.6
2022-12-14T04:34:39.323Z,10.4
2022-12-14T04:35:39.915Z,9.8
2022-12-14T04:36:40.508Z,10.5
2022-12-14T04:37:41.099Z,10.6
2022-12-14T04:38:41.694Z,10.6
2022-12-14T04:39:42.287Z,10.2
2022-12-14T04:40:42.883Z,10.9
2022-12-14T04:41:43.474Z,10.7
2022-12-14T04:42:44.069Z,10.5
2022-12-14T04:43:44.659Z,10.1
2022-12-14T04:44:46.246Z,11.1
2022-12-14T04:45:46.941Z,10.5
2022-12-14T04:46:47.511Z,9.7
2022-12-14T04:47:48.106Z,10.4
2022-12-14T04:48:48.700Z,9.7
2022-12-14T04:49:49.293Z,9.6
2022-12-14T04:50:49.883Z,9.3
2022-12-14T04:51:50.474Z,9.7
2022-12-14T04:52:51.067Z,9.7
2022-12-14T04:53:51.659Z,9.6
2022-12-14T04:54:52.252Z,9.8
2022-12-14T04:55:52.844Z,10.2
2022-12-14T04:56:53.443Z,9.5
2022-12-14T04:57:54.033Z,10.2
2022-12-14T04:58:54.626Z,8.7
2022-12-14T04:59:55.219Z,9.3
2022-12-14T05:00:55.876Z,10.1
2022-12-14T05:01:56.712Z,9.4
2022-12-14T05:02:57.102Z,9.3
2022-12-14T05:03:57.665Z,9.3
2022-12-14T05:04:58.258Z,9.0
2022-12-14T05:05:58.858Z,9.6
2022-12-14T05:06:59.444Z,9.6
2022-12-14T05:08:00.038Z,10.2
2022-12-14T05:09:00.648Z,9.4
2022-12-14T05:10:01.245Z,9.4
2022-12-14T05:11:23.261Z,9.2
2022-12-14T05:12:03.420Z,9.2
2022-12-14T05:13:04.014Z,10.2
2022-12-14T05:14:04.605Z,9.8
2022-12-14T05:15:05.200Z,10.0
2022-12-14T05:16:05.796Z,10.5
2022-12-14T05:17:08.742Z,9.4
2022-12-14T05:18:07.988Z,9.4
2022-12-14T05:19:08.586Z,10.3
2022-12-14T05:20:09.175Z,9.9
2022-12-14T05:21:09.769Z,9.4
2022-12-14T05:22:10.356Z,8.5
2022-12-14T05:23:10.948Z,8.7
2022-12-14T05:24:11.539Z,9.1
2022-12-14T05:25:12.138Z,8.6
2022-12-14T05:26:12.723Z,8.9
2022-12-14T05:27:13.318Z,9.6
2022-12-14T05:28:13.929Z,9.5
2022-12-14T05:29:14.521Z,8.9
2022-12-14T05:30:15.113Z,9.0
2022-12-14T05:31:15.740Z,9.0
2022-12-14T05:32:16.298Z,9.4
2022-12-14T05:33:16.894Z,9.3
2022-12-14T05:34:17.483Z,9.1
2022-12-14T05:35:18.091Z,9.8
2022-12-14T05:36:18.667Z,9.3
2022-12-14T05:37:19.262Z,9.7
2022-12-14T05:38:19.855Z,9.4
2022-12-14T05:39:20.448Z,9.6
2022-12-14T05:40:21.038Z,9.8
2022-12-14T05:41:21.632Z,10.4
2022-12-14T05:42:22.225Z,10.4
2022-12-14T05:43:22.817Z,9.4
2022-12-14T05:44:23.415Z,9.7
2022-12-14T05:45:24.003Z,10.4
2022-12-14T05:46:24.633Z,9.2
2022-12-14T05:47:25.251Z,8.9
2022-12-14T05:48:25.849Z,9.4
2022-12-14T05:49:26.456Z,9.6
2022-12-14T05:50:27.046Z,10.1
2022-12-14T05:51:27.642Z,9.3
2022-12-14T05:52:28.231Z,9.5
2022-12-14T05:53:29.365Z,9.7
2022-12-14T05:54:30.390Z,10.1
2022-12-14T05:55:30.982Z,10.6
2022-12-14T05:56:31.573Z,10.6
2022-12-14T05:57:32.206Z,10.2
2022-12-14T05:58:32.756Z,11.3
2022-12-14T05:59:33.352Z,11.3
2022-12-14T06:00:33.945Z,11.0
2022-12-14T06:01:34.577Z,10.8
2022-12-14T06:02:35.185Z,10.2
2022-12-14T06:03:35.758Z,11.4
2022-12-14T06:04:36.436Z,10.8
2022-12-14T06:05:37.004Z,11.5
2022-12-14T06:06:37.598Z,11.9
2022-12-14T06:07:38.194Z,11.3
2022-12-14T06:08:38.784Z,12.2
2022-12-14T06:09:39.377Z,11.8
2022-12-14T06:10:39.972Z,12.6
2022-12-14T06:11:40.562Z,12.1
2022-12-14T06:12:41.174Z,12.9
2022-12-14T06:13:41.787Z,12.2
2022-12-14T06:14:42.378Z,11.6
2022-12-14T06:15:43.025Z,11.6
2022-12-14T06:16:43.562Z,12.2
2022-12-14T06:17:44.156Z,11.3
2022-12-14T06:18:44.748Z,11.7
2022-12-14T06:19:50.053Z,12.4
2022-12-14T06:20:46.930Z,11.2
2022-12-14T06:21:47.525Z,12.4
2022-12-14T06:22:48.115Z,11.9
2022-12-14T06:23:48.710Z,12.6
2022-12-14T06:24:49.325Z,11.9
2022-12-14T06:25:49.938Z,11.8
2022-12-14T06:26:50.598Z,12.6
2022-12-14T06:27:51.191Z,11.8
2022-12-14T06:28:51.803Z,10.9
2022-12-14T06:29:52.415Z,12.1
2022-12-14T06:30:53.047Z,11.6
2022-12-14T06:31:53.610Z,11.1
2022-12-14T06:32:54.201Z,11.0
2022-12-14T06:33:54.821Z,11.7
2022-12-14T06:34:55.390Z,11.0
2022-12-14T06:35:55.985Z,11.2
2022-12-14T06:36:56.581Z,11.0
2022-12-14T06:37:57.175Z,10.5
2022-12-14T06:38:57.796Z,10.6
2022-12-14T06:39:58.385Z,11.0
2022-12-14T06:40:58.981Z,11.0
2022-12-14T06:41:59.575Z,10.6
2022-12-14T06:43:00.168Z,11.6
2022-12-14T06:44:00.761Z,12.9
2022-12-14T06:45:01.353Z,11.7
2022-12-14T06:46:02.037Z,10.1
2022-12-14T06:47:02.684Z,14.9
2022-12-14T06:48:03.244Z,11.2
2022-12-14T06:49:03.836Z,11.2
2022-12-14T06:50:04.428Z,12.7
2022-12-14T06:51:05.024Z,10.7
2022-12-14T06:52:05.619Z,12.4
2022-12-14T06:53:06.215Z,11.1
2022-12-14T06:54:06.817Z,10.5
2022-12-14T06:55:07.403Z,11.4
2022-12-14T06:56:07.994Z,10.5
2022-12-14T06:57:08.589Z,10.5
2022-12-14T06:58:09.181Z,12.5
2022-12-14T06:59:09.776Z,10.1
2022-12-14T07:00:10.368Z,9.8
2022-12-14T07:01:11.133Z,10.6
2022-12-14T07:02:11.790Z,10.4
2022-12-14T07:03:12.462Z,11.5
2022-12-14T07:04:13.000Z,9.9
2022-12-14T07:05:13.594Z,10.1
2022-12-14T07:06:14.190Z,10.1
2022-12-14T07:07:14.785Z,10.1
2022-12-14T07:08:15.395Z,9.9
2022-12-14T07:09:15.974Z,8.9
2022-12-14T07:10:16.565Z,9.8
2022-12-14T07:11:17.158Z,10.6
2022-12-14T07:12:17.773Z,9.5
2022-12-14T07:13:18.369Z,9.6
2022-12-14T07:14:18.964Z,9.4
2022-12-14T07:15:19.558Z,9.1
2022-12-14T07:16:20.224Z,9.6
2022-12-14T07:17:20.765Z,8.9
2022-12-14T07:18:21.378Z,8.4
2022-12-14T07:19:21.978Z,8.9
2022-12-14T07:20:22.567Z,8.7
2022-12-14T07:21:23.163Z,8.4
2022-12-14T07:22:23.776Z,8.9
2022-12-14T07:23:27.848Z,9.5
2022-12-14T07:24:24.984Z,8.6
2022-12-14T07:25:25.581Z,8.7
2022-12-14T07:26:26.173Z,8.5
2022-12-14T07:27:26.772Z,10.0
2022-12-14T07:28:27.363Z,8.5
2022-12-14T07:29:34.134Z,40.0
2022-12-14T07:30:28.646Z,10.6
2022-12-14T07:31:29.259Z,10.2
2022-12-14T07:32:29.858Z,10.6
2022-12-14T07:33:30.695Z,8.8
2022-12-14T07:34:31.400Z,7.8
2022-12-14T07:35:32.004Z,8.0
2022-12-14T07:36:32.597Z,8.4
2022-12-14T07:37:33.191Z,8.3
2022-12-14T07:38:33.786Z,8.3
2022-12-14T07:39:34.383Z,8.7
2022-12-14T07:40:34.975Z,8.0
2022-12-14T07:41:35.573Z,8.7
2022-12-14T07:42:36.165Z,8.8
2022-12-14T07:43:36.761Z,8.0
2022-12-14T07:44:37.358Z,8.2
2022-12-14T07:45:37.956Z,9.3
2022-12-14T07:46:38.590Z,9.0
2022-12-14T07:47:39.149Z,8.4
2022-12-14T07:48:39.742Z,8.2
2022-12-14T07:49:40.340Z,7.4
2022-12-14T07:50:40.935Z,8.2
2022-12-14T07:51:41.531Z,8.1
2022-12-14T07:52:42.125Z,8.5
2022-12-14T07:53:42.726Z,8.6
2022-12-14T07:54:43.319Z,9.1
2022-12-14T07:55:43.916Z,8.1
2022-12-14T07:56:44.532Z,8.3
2022-12-14T07:57:45.128Z,8.0
2022-12-14T07:58:45.722Z,8.8
2022-12-14T07:59:46.339Z,8.2
2022-12-14T08:00:46.956Z,8.8
2022-12-14T08:01:47.679Z,8.5
2022-12-14T08:02:48.359Z,8.8
2022-12-14T08:03:48.924Z,8.7
2022-12-14T08:04:49.543Z,8.5
2022-12-14T08:05:50.113Z,8.2
2022-12-14T08:06:50.707Z,8.4
2022-12-14T08:07:51.303Z,8.0
2022-12-14T08:08:51.919Z,8.2
2022-12-14T08:09:52.515Z,7.5
2022-12-14T08:10:53.108Z,8.5
2022-12-14T08:11:53.705Z,8.1
2022-12-14T08:12:54.300Z,7.6
2022-12-14T08:13:54.927Z,8.8
2022-12-14T08:14:55.517Z,7.8
2022-12-14T08:15:56.157Z,8.0
2022-12-14T08:16:56.709Z,8.0
2022-12-14T08:17:57.308Z,8.3
2022-12-14T08:18:57.912Z,8.0
2022-12-14T08:19:58.501Z,7.4
2022-12-14T08:20:59.098Z,7.7
2022-12-14T08:21:59.712Z,7.8
2022-12-14T08:23:00.313Z,8.1
2022-12-14T08:24:00.910Z,8.6
2022-12-14T08:25:01.531Z,7.8
2022-12-14T08:26:02.127Z,7.7
2022-12-14T08:27:02.741Z,7.4
2022-12-14T08:28:03.336Z,7.7
2022-12-14T08:29:03.932Z,7.4
2022-12-14T08:30:04.529Z,7.5
2022-12-14T08:31:05.213Z,8.0
2022-12-14T08:32:05.793Z,7.7
2022-12-14T08:33:06.377Z,7.9
2022-12-14T08:34:06.974Z,7.2
2022-12-14T08:35:07.669Z,7.7
2022-12-14T08:36:08.181Z,7.9
2022-12-14T08:37:08.777Z,8.0
2022-12-14T08:38:09.377Z,7.8
2022-12-14T08:39:10.003Z,8.3
2022-12-14T08:40:10.590Z,7.6
2022-12-14T08:41:11.188Z,8.1
2022-12-14T08:42:11.785Z,7.9
2022-12-14T08:43:12.382Z,8.7
2022-12-14T08:44:12.999Z,8.7
2022-12-14T08:45:13.597Z,8.5
2022-12-14T08:46:14.234Z,8.6
2022-12-14T08:47:14.794Z,8.6
2022-12-14T08:48:15.385Z,9.2
2022-12-14T08:49:15.983Z,9.2
2022-12-14T08:50:16.595Z,8.8
2022-12-14T08:51:17.191Z,8.7
2022-12-14T08:52:17.806Z,7.8
2022-12-14T08:53:18.404Z,8.5
2022-12-14T08:54:19.004Z,8.7
2022-12-14T08:55:23.914Z,8.9
2022-12-14T08:56:21.208Z,9.3
2022-12-14T08:57:21.807Z,9.0
2022-12-14T08:58:22.404Z,9.1
2022-12-14T08:59:52.135Z,9.5
2022-12-14T09:00:24.597Z,9.2
2022-12-14T09:01:32.057Z,9.2
2022-12-14T09:02:26.896Z,9.4
2022-12-14T09:03:27.795Z,9.3
2022-12-14T09:04:28.543Z,9.4
2022-12-14T09:05:29.144Z,9.3
2022-12-14T09:06:29.738Z,8.9
2022-12-14T09:07:30.336Z,8.9
2022-12-14T09:08:30.954Z,8.7
2022-12-14T09:09:31.570Z,8.4
2022-12-14T09:10:32.171Z,8.6
2022-12-14T09:11:32.763Z,8.9
2022-12-14T09:12:33.360Z,8.9
2022-12-14T09:13:34.142Z,9.1
2022-12-14T09:14:34.572Z,8.3
2022-12-14T09:15:35.169Z,7.8
2022-12-14T09:16:35.796Z,8.4
2022-12-14T09:17:36.387Z,8.0
2022-12-14T09:18:36.962Z,8.1
2022-12-14T09:19:37.578Z,7.8
2022-12-14T09:20:38.176Z,8.4
2022-12-14T09:21:38.823Z,7.9
2022-12-14T09:22:39.384Z,7.1
2022-12-14T09:23:39.979Z,8.3
2022-12-14T09:24:40.575Z,7.3
2022-12-14T09:25:41.171Z,7.7
2022-12-14T09:26:41.770Z,8.2
2022-12-14T09:27:42.364Z,7.4
2022-12-14T09:28:42.963Z,7.3
2022-12-14T09:29:43.558Z,7.8
2022-12-14T09:30:44.156Z,7.3
2022-12-14T09:31:45.561Z,7.1
2022-12-14T09:32:46.270Z,7.5
2022-12-14T09:33:47.861Z,7.7
2022-12-14T09:34:48.456Z,7.6
2022-12-14T09:35:49.052Z,8.1
2022-12-14T09:36:49.652Z,7.8
2022-12-14T09:37:50.244Z,7.9
2022-12-14T09:38:52.227Z,7.9
2022-12-14T09:39:51.454Z,8.4
2022-12-14T09:40:52.053Z,7.6
2022-12-14T09:41:57.732Z,7.7
2022-12-14T09:42:53.259Z,7.0
2022-12-14T09:43:53.875Z,7.7
2022-12-14T09:44:54.473Z,6.9
2022-12-14T09:45:55.092Z,7.7
2022-12-14T09:46:55.667Z,7.2
2022-12-14T09:47:56.262Z,7.6
2022-12-14T09:48:56.859Z,7.3
2022-12-14T09:49:57.453Z,7.1
2022-12-14T09:50:58.060Z,7.2
2022-12-14T09:51:58.665Z,7.5
2022-12-14T09:52:59.263Z,7.5
2022-12-14T09:54:02.573Z,7.6
2022-12-14T09:55:01.448Z,7.4
2022-12-14T09:56:02.042Z,7.4
2022-12-14T09:57:02.642Z,6.8
2022-12-14T09:58:03.245Z,6.6
2022-12-14T09:59:03.843Z,6.9
2022-12-14T10:00:04.435Z,7.3
2022-12-14T10:01:05.063Z,6.6
2022-12-14T10:03:07.607Z,6.8
2022-12-14T10:04:08.366Z,6.7
2022-12-14T10:05:08.962Z,7.1
2022-12-14T10:06:09.561Z,7.0
2022-12-14T10:07:10.157Z,6.7
2022-12-14T10:08:10.757Z,7.3
2022-12-14T10:09:11.353Z,9.5
2022-12-14T10:10:11.950Z,13.0
2022-12-14T10:11:12.549Z,6.5
2022-12-14T10:12:13.144Z,6.5
2022-12-14T10:13:13.763Z,9.7
2022-12-14T10:14:14.343Z,14.4
2022-12-14T10:15:14.945Z,9.3
2022-12-14T10:16:15.629Z,6.6
2022-12-14T10:17:16.234Z,6.9
2022-12-14T10:18:49.551Z,7.2
2022-12-14T10:19:18.294Z,6.9
2022-12-14T10:20:18.890Z,7.0
2022-12-14T10:21:19.488Z,7.4
2022-12-14T10:22:20.083Z,7.9
2022-12-14T10:23:23.070Z,8.9
2022-12-14T10:24:21.297Z,8.7
2022-12-14T10:25:21.898Z,9.3
2022-12-14T10:26:22.497Z,10.7
2022-12-14T10:27:23.097Z,10.3
2022-12-14T10:28:23.696Z,10.3
2022-12-14T10:29:24.296Z,9.9
2022-12-14T10:30:24.893Z,9.2
2022-12-14T10:31:25.533Z,8.9
2022-12-14T10:32:26.099Z,10.1
2022-12-14T10:33:26.701Z,10.7
2022-12-14T10:34:27.300Z,10.1
2022-12-14T10:35:27.917Z,10.3
2022-12-14T10:36:28.516Z,10.8
2022-12-14T10:37:29.147Z,9.7
2022-12-14T10:38:30.223Z,9.9
2022-12-14T10:39:30.909Z,8.3
2022-12-14T10:40:34.559Z,8.4
2022-12-14T10:41:33.098Z,9.9
2022-12-14T10:42:33.705Z,8.3
2022-12-14T10:43:34.321Z,8.8
2022-12-14T10:44:34.932Z,9.6
2022-12-14T10:45:42.947Z,9.8
2022-12-14T10:46:37.199Z,9.7
2022-12-14T10:47:37.814Z,9.4
2022-12-14T10:48:38.409Z,9.7
2022-12-14T10:49:39.007Z,9.0
2022-12-14T10:50:39.606Z,8.6
2022-12-14T10:51:40.229Z,9.0
2022-12-14T10:52:40.825Z,9.0
2022-12-14T10:53:41.725Z,9.5
2022-12-14T10:54:42.567Z,8.8
2022-12-14T10:55:43.209Z,8.6
2022-12-14T10:56:43.939Z,8.3
2022-12-14T10:57:45.395Z,9.5
2022-12-14T10:58:45.992Z,8.3
2022-12-14T11:00:03.326Z,8.9
2022-12-14T11:00:48.228Z,8.3
2022-12-14T11:01:48.887Z,8.7
2022-12-14T11:02:50.035Z,8.2
2022-12-14T11:03:50.944Z,8.4
2022-12-14T11:04:51.565Z,7.2
2022-12-14T11:05:52.160Z,7.3
2022-12-14T11:06:52.754Z,8.3
2022-12-14T11:07:53.373Z,8.0
2022-12-14T11:08:53.972Z,7.9
2022-12-14T11:09:54.591Z,8.4
2022-12-14T11:10:55.209Z,7.8
2022-12-14T11:11:55.841Z,7.7
2022-12-14T11:12:56.412Z,7.0
2022-12-14T11:13:57.011Z,7.4
2022-12-14T11:14:57.610Z,7.5
2022-12-14T11:15:58.208Z,8.0
2022-12-14T11:16:58.929Z,7.5
2022-12-14T11:17:59.620Z,6.9
2022-12-14T11:19:00.242Z,6.9
2022-12-14T11:20:00.860Z,6.9
2022-12-14T11:21:01.475Z,7.5
2022-12-14T11:22:02.060Z,7.3
2022-12-14T11:23:02.656Z,7.8
2022-12-14T11:24:03.273Z,7.4
2022-12-14T11:25:03.876Z,7.0
2022-12-14T11:26:04.472Z,7.5
2022-12-14T11:27:05.073Z,7.9
2022-12-14T11:28:05.671Z,8.0
2022-12-14T11:29:06.269Z,7.4
2022-12-14T11:30:06.867Z,7.7
2022-12-14T11:31:07.613Z,7.1
2022-12-14T11:32:08.080Z,7.3
2022-12-14T11:33:08.678Z,6.3
2022-12-14T11:34:09.279Z,6.2
2022-12-14T11:35:09.881Z,5.8
2022-12-14T11:36:10.503Z,6.1
2022-12-14T11:37:11.097Z,5.6
2022-12-14T11:38:11.717Z,6.2
2022-12-14T11:39:12.318Z,6.4
2022-12-14T11:40:12.931Z,6.3
2022-12-14T11:41:13.516Z,6.2
2022-12-14T11:42:14.117Z,5.3
2022-12-14T11:43:14.714Z,6.4
2022-12-14T11:44:15.311Z,6.2
2022-12-14T11:45:15.911Z,5.7
2022-12-14T11:46:16.530Z,5.9
2022-12-14T11:47:17.108Z,6.1
2022-12-14T11:48:17.708Z,5.3
2022-12-14T11:49:18.310Z,5.6
2022-12-14T11:50:18.928Z,5.8
2022-12-14T11:51:19.527Z,6.0
2022-12-14T11:52:20.126Z,7.0
2022-12-14T11:53:20.725Z,6.4
2022-12-14T11:54:21.323Z,5.4
2022-12-14T11:55:26.800Z,6.2
2022-12-14T11:56:23.514Z,5.6
2022-12-14T11:57:24.116Z,10.8
2022-12-14T11:58:24.717Z,10.5
2022-12-14T11:59:25.317Z,9.5
2022-12-14T12:00:25.915Z,7.4
2022-12-14T12:01:26.607Z,5.5
2022-12-14T12:02:27.351Z,5.9
2022-12-14T12:03:27.986Z,4.5
2022-12-14T12:04:28.551Z,5.8
2022-12-14T12:05:29.172Z,6.5
2022-12-14T12:06:29.789Z,5.9
2022-12-14T12:07:30.409Z,5.2
2022-12-14T12:08:31.306Z,5.5
2022-12-14T12:09:32.069Z,6.4
2022-12-14T12:10:32.668Z,5.8
2022-12-14T12:11:33.269Z,6.6
2022-12-14T12:12:33.895Z,6.8
2022-12-14T12:13:34.486Z,7.1
2022-12-14T12:14:35.104Z,6.9
2022-12-14T12:15:35.968Z,6.9
2022-12-14T12:16:36.679Z,6.5
2022-12-14T12:17:37.279Z,7.1
2022-12-14T12:18:44.516Z,6.8
2022-12-14T12:19:39.474Z,6.3
2022-12-14T12:20:40.068Z,6.1
2022-12-14T12:21:40.688Z,6.6
2022-12-14T12:22:41.309Z,6.7
2022-12-14T12:23:41.910Z,7.0
2022-12-14T12:25:08.211Z,7.1
2022-12-14T12:25:43.119Z,7.0
2022-12-14T12:26:43.714Z,7.3
2022-12-14T12:27:45.309Z,6.0
2022-12-14T12:28:45.906Z,7.2
2022-12-14T12:29:46.507Z,7.7
2022-12-14T12:30:47.157Z,7.5
2022-12-14T12:31:47.731Z,6.9
2022-12-14T12:32:50.100Z,6.4
2022-12-14T12:33:49.924Z,6.6
2022-12-14T12:34:50.523Z,6.2
2022-12-14T12:35:51.123Z,6.5
2022-12-14T12:37:24.805Z,5.9
2022-12-14T12:37:53.208Z,6.8
2022-12-14T12:38:53.816Z,6.6
2022-12-14T12:39:54.409Z,7.4
2022-12-14T12:40:55.026Z,7.1
2022-12-14T12:41:58.173Z,7.3
2022-12-14T12:42:57.215Z,6.7
2022-12-14T12:43:57.818Z,6.9
2022-12-14T12:44:58.413Z,6.7
2022-12-14T12:45:59.051Z,7.0
2022-12-14T12:47:23.471Z,7.1
2022-12-14T12:48:01.233Z,7.2
2022-12-14T12:49:01.850Z,6.6
2022-12-14T12:50:02.449Z,6.8
2022-12-14T12:51:03.050Z,6.2
2022-12-14T12:52:03.658Z,6.7
2022-12-14T12:53:04.548Z,7.2
2022-12-14T12:54:04.872Z,7.3
2022-12-14T12:55:05.471Z,6.1
2022-12-14T12:56:06.072Z,7.0
2022-12-14T12:57:06.670Z,6.6
2022-12-14T12:58:07.269Z,6.0
2022-12-14T12:59:07.888Z,7.2
2022-12-14T13:00:08.487Z,6.4
2022-12-14T13:01:09.088Z,5.6
2022-12-14T13:02:09.744Z,5.7
2022-12-14T13:03:10.436Z,5.4
2022-12-14T13:04:11.032Z,5.4
2022-12-14T13:05:44.472Z,6.1
2022-12-14T13:06:13.226Z,5.5
2022-12-14T13:07:13.825Z,5.3
2022-12-14T13:08:14.425Z,4.4
2022-12-14T13:09:15.039Z,4.2
2022-12-14T13:10:15.730Z,4.5
2022-12-14T13:11:31.603Z,5.1
2022-12-14T13:12:17.856Z,4.9
2022-12-14T13:13:18.459Z,4.9
2022-12-14T13:14:19.055Z,4.4
2022-12-14T13:15:19.656Z,4.4
2022-12-14T13:16:26.324Z,4.7
2022-12-14T13:17:21.847Z,4.6
2022-12-14T13:18:56.080Z,4.8
2022-12-14T13:20:25.523Z,5.7
2022-12-14T13:21:26.126Z,6.1
2022-12-14T13:22:26.724Z,5.5
2022-12-14T13:24:28.917Z,5.3
2022-12-14T13:25:29.516Z,5.9
2022-12-14T13:26:56.647Z,5.8
2022-12-14T13:27:30.733Z,5.3
2022-12-14T13:28:31.761Z,5.8
2022-12-14T13:29:32.589Z,5.6
2022-12-14T13:30:33.186Z,6.3
2022-12-14T13:31:33.860Z,6.8
2022-12-14T13:32:37.451Z,6.6
2022-12-14T13:33:36.060Z,6.3
2022-12-14T13:34:36.660Z,6.7
2022-12-14T13:35:37.259Z,6.5
2022-12-14T13:36:37.859Z,6.4
2022-12-14T13:37:38.458Z,6.8
2022-12-14T13:38:39.494Z,6.5
2022-12-14T13:39:40.177Z,6.8
2022-12-14T13:40:40.775Z,6.8
2022-12-14T13:41:41.376Z,5.7
2022-12-14T13:42:41.972Z,6.5
2022-12-14T13:43:42.591Z,6.3
2022-12-14T13:44:44.205Z,7.0
2022-12-14T13:45:44.784Z,7.1